createdAt,value
2023-05-10T00:00:19.796Z,100.00
2023-05-10T00:02:48.702Z,100.00
2023-05-10T00:05:18.305Z,100.00
2023-05-10T00:07:46.012Z,100.00
2023-05-10T00:10:15.705Z,100.00
2023-05-10T00:12:46.415Z,100.00
2023-05-10T00:15:21.112Z,100.00
2023-05-10T00:17:47.503Z,100.00
2023-05-10T00:20:19.396Z,100.00
2023-05-10T00:22:49.057Z,100.00
2023-05-10T00:25:22.015Z,100.00
2023-05-10T00:27:51.404Z,100.00
2023-05-10T00:30:24.999Z,100.00
2023-05-10T00:32:54.194Z,100.00
2023-05-10T00:35:21.354Z,100.00
2023-05-10T00:37:48.552Z,100.00
2023-05-10T00:40:18.318Z,100.00
2023-05-10T00:42:44.955Z,100.00
2023-05-10T00:45:14.143Z,100.00
2023-05-10T00:47:40.664Z,100.00
2023-05-10T00:50:07.977Z,100.00
2023-05-10T00:52:36.951Z,100.00
2023-05-10T00:55:07.304Z,100.00
2023-05-10T00:57:36.185Z,100.00
2023-05-10T01:00:10.944Z,100.00
2023-05-10T01:02:52.587Z,100.00
2023-05-10T01:05:22.216Z,100.00
2023-05-10T01:07:51.372Z,100.00
2023-05-10T01:10:18.254Z,100.00
2023-05-10T01:12:57.146Z,100.00
2023-05-10T01:18:08.058Z,100.00
2023-05-10T01:20:42.636Z,100.00
2023-05-10T01:23:21.240Z,100.00
2023-05-10T01:26:02.627Z,100.00
2023-05-10T01:28:57.349Z,100.00
2023-05-10T01:32:08.633Z,100.00
2023-05-10T01:35:12.896Z,100.00
2023-05-10T01:38:08.615Z,100.00
2023-05-10T01:41:19.648Z,100.00
2023-05-10T01:44:21.321Z,100.00
2023-05-10T01:46:58.072Z,100.00
2023-05-10T01:49:28.359Z,100.00
2023-05-10T01:55:18.051Z,100.00
2023-05-10T01:57:49.899Z,100.00
2023-05-10T02:00:19.420Z,100.00
2023-05-10T02:02:48.613Z,100.00
2023-05-10T02:05:17.659Z,100.00
2023-05-10T02:07:48.238Z,100.00
2023-05-10T02:10:21.284Z,100.00
2023-05-10T02:12:49.401Z,100.00
2023-05-10T02:15:23.767Z,100.00
2023-05-10T02:17:56.491Z,100.00
2023-05-10T02:20:27.078Z,100.00
2023-05-10T02:22:55.899Z,100.00
2023-05-10T02:25:30.207Z,100.00
2023-05-10T02:27:58.699Z,100.00
2023-05-10T02:33:34.994Z,100.00
2023-05-10T02:36:03.547Z,100.00
2023-05-10T02:38:37.791Z,100.00
2023-05-10T02:41:05.742Z,100.00
2023-05-10T02:43:37.063Z,100.00
2023-05-10T02:46:06.858Z,100.00
2023-05-10T02:48:33.428Z,100.00
2023-05-10T02:51:09.961Z,100.00
2023-05-10T02:56:37.157Z,100.00
2023-05-10T02:59:06.645Z,100.00
2023-05-10T03:01:35.991Z,100.00
2023-05-10T03:04:02.430Z,100.00
2023-05-10T03:06:40.292Z,100.00
2023-05-10T03:09:12.231Z,100.00
2023-05-10T03:12:22.049Z,100.00
2023-05-10T03:15:17.164Z,100.00
2023-05-10T03:18:10.659Z,100.00
2023-05-10T03:20:45.288Z,100.00
2023-05-10T03:23:28.483Z,100.00
2023-05-10T03:25:55.639Z,100.00
2023-05-10T03:28:22.957Z,100.00
2023-05-10T03:30:53.763Z,100.00
2023-05-10T03:33:23.327Z,100.00
2023-05-10T03:35:49.756Z,100.00
2023-05-10T03:38:16.166Z,100.00
2023-05-10T03:40:42.597Z,100.00
2023-05-10T03:43:09.376Z,100.00
2023-05-10T03:45:38.270Z,100.00
2023-05-10T03:48:05.158Z,100.00
2023-05-10T03:50:35.890Z,100.00
2023-05-10T03:53:05.269Z,100.00
2023-05-10T03:55:38.643Z,100.00
2023-05-10T03:58:11.877Z,100.00
2023-05-10T04:00:50.178Z,100.00
2023-05-10T04:06:12.743Z,100.00
2023-05-10T04:08:47.331Z,100.00
2023-05-10T04:11:14.618Z,100.00
2023-05-10T04:13:41.052Z,100.00
2023-05-10T04:16:11.859Z,100.00
2023-05-10T04:18:38.221Z,100.00
2023-05-10T04:21:04.617Z,100.00
2023-05-10T04:23:36.070Z,100.00
2023-05-10T04:26:03.003Z,100.00
2023-05-10T04:28:29.814Z,100.00
2023-05-10T04:31:06.783Z,100.00
2023-05-10T04:33:37.003Z,100.00
2023-05-10T04:36:06.371Z,100.00
2023-05-10T04:38:32.734Z,100.00
2023-05-10T04:41:12.306Z,100.00
2023-05-10T04:43:40.020Z,100.00
2023-05-10T04:46:08.001Z,100.00
2023-05-10T04:48:34.672Z,100.00
2023-05-10T04:51:01.160Z,100.00
2023-05-10T04:53:28.916Z,100.00
2023-05-10T04:55:59.122Z,100.00
2023-05-10T04:58:25.890Z,100.00
2023-05-10T05:01:01.819Z,100.00
2023-05-10T05:03:28.321Z,100.00
2023-05-10T05:05:58.004Z,100.00
2023-05-10T05:08:27.260Z,100.00
2023-05-10T05:10:55.815Z,100.00
2023-05-10T05:13:28.798Z,100.00
2023-05-10T05:15:55.620Z,100.00
2023-05-10T05:18:30.786Z,100.00
2023-05-10T05:20:57.355Z,100.00
2023-05-10T05:23:28.575Z,100.00
2023-05-10T05:25:55.308Z,100.00
2023-05-10T05:28:21.940Z,100.00
2023-05-10T05:30:50.953Z,100.00
2023-05-10T05:33:20.094Z,100.00
2023-05-10T05:35:53.575Z,100.00
2023-05-10T05:38:23.086Z,100.00
2023-05-10T05:40:49.733Z,100.00
2023-05-10T05:43:19.291Z,100.00
2023-05-10T05:45:48.615Z,100.00
2023-05-10T05:48:19.208Z,100.00
2023-05-10T05:50:50.090Z,100.00
2023-05-10T05:53:16.766Z,100.00
2023-05-10T05:55:54.287Z,100.00
2023-05-10T05:58:24.305Z,100.00
2023-05-10T06:00:55.127Z,100.00
2023-05-10T06:03:21.607Z,100.00
2023-05-10T06:05:56.458Z,100.00
2023-05-10T06:08:23.382Z,100.00
2023-05-10T06:10:52.474Z,100.00
2023-05-10T06:13:22.243Z,100.00
2023-05-10T06:15:48.690Z,100.00
2023-05-10T06:18:27.906Z,100.00
2023-05-10T06:20:54.577Z,100.00
2023-05-10T06:23:21.232Z,100.00
2023-05-10T06:25:50.497Z,100.00
2023-05-10T06:28:19.908Z,100.00
2023-05-10T06:30:46.245Z,100.00
2023-05-10T06:33:12.845Z,100.00
2023-05-10T06:35:39.844Z,100.00
2023-05-10T06:38:09.498Z,100.00
2023-05-10T06:40:42.599Z,100.00
2023-05-10T06:43:12.837Z,100.00
2023-05-10T06:45:39.337Z,100.00
2023-05-10T06:48:06.119Z,100.00
2023-05-10T06:50:40.873Z,100.00
2023-05-10T06:53:07.374Z,100.00
2023-05-10T06:55:36.048Z,100.00
2023-05-10T06:58:05.930Z,100.00
2023-05-10T07:00:32.504Z,100.00
2023-05-10T07:03:03.082Z,100.00
2023-05-10T07:05:32.870Z,100.00
2023-05-10T07:08:07.223Z,100.00
2023-05-10T07:10:34.019Z,100.00
2023-05-10T07:13:01.334Z,100.00
2023-05-10T07:15:31.031Z,100.00
2023-05-10T07:17:57.585Z,100.00
2023-05-10T07:20:24.121Z,100.00
2023-05-10T07:22:58.855Z,100.00
2023-05-10T07:25:25.408Z,100.00
2023-05-10T07:27:52.245Z,100.00
2023-05-10T07:30:25.090Z,100.00
2023-05-10T07:32:51.530Z,100.00
2023-05-10T07:35:27.379Z,100.00
2023-05-10T07:37:53.830Z,100.00
2023-05-10T07:40:23.313Z,100.00
2023-05-10T07:42:52.910Z,100.00
2023-05-10T07:45:19.501Z,100.00
2023-05-10T07:47:49.100Z,100.00
2023-05-10T07:50:15.739Z,100.00
2023-05-10T07:52:45.070Z,100.00
2023-05-10T07:55:18.031Z,100.00
2023-05-10T07:57:44.729Z,100.00
2023-05-10T08:00:23.367Z,100.00
2023-05-10T08:03:02.702Z,100.00
2023-05-10T08:05:29.120Z,100.00
2023-05-10T08:10:42.570Z,100.00
2023-05-10T08:13:12.705Z,100.00
2023-05-10T08:15:44.291Z,100.00
2023-05-10T08:18:10.892Z,100.00
2023-05-10T08:20:37.255Z,100.00
2023-05-10T08:23:08.163Z,100.00
2023-05-10T08:25:34.492Z,100.00
2023-05-10T08:28:00.960Z,100.00
2023-05-10T08:30:40.534Z,100.00
2023-05-10T08:33:13.425Z,100.00
2023-05-10T08:35:43.004Z,100.00
2023-05-10T08:38:13.308Z,100.00
2023-05-10T08:40:43.158Z,100.00
2023-05-10T08:43:19.448Z,100.00
2023-05-10T08:45:48.944Z,100.00
2023-05-10T08:51:04.644Z,100.00
2023-05-10T08:53:40.475Z,100.00
2023-05-10T08:56:07.713Z,100.00
2023-05-10T08:58:38.769Z,100.00
2023-05-10T09:01:09.481Z,100.00
2023-05-10T09:03:36.345Z,100.00
2023-05-10T09:06:02.879Z,100.00
2023-05-10T09:08:33.649Z,100.00
2023-05-10T09:11:02.448Z,100.00
2023-05-10T09:13:31.980Z,100.00
2023-05-10T09:16:09.798Z,100.00
2023-05-10T09:18:42.685Z,98.86
2023-05-10T09:21:10.817Z,95.28
2023-05-10T09:23:48.670Z,93.09
2023-05-10T09:26:22.589Z,92.66
2023-05-10T09:28:53.200Z,89.30
2023-05-10T09:31:22.073Z,90.69
2023-05-10T09:33:54.785Z,88.97
2023-05-10T09:36:23.630Z,86.73
2023-05-10T09:38:56.171Z,79.77
2023-05-10T09:41:26.164Z,78.56
2023-05-10T09:43:58.462Z,81.28
2023-05-10T09:46:25.070Z,80.25
2023-05-10T09:49:04.470Z,78.19
2023-05-10T09:51:30.955Z,80.39
2023-05-10T09:54:19.759Z,81.62
2023-05-10T09:56:46.248Z,79.74
2023-05-10T09:59:13.470Z,81.40
2023-05-10T10:01:52.552Z,82.79
2023-05-10T10:04:25.017Z,85.59
2023-05-10T10:07:12.080Z,86.24
2023-05-10T10:09:41.691Z,90.16
2023-05-10T10:12:14.200Z,89.91
2023-05-10T10:14:40.802Z,92.29
2023-05-10T10:17:11.157Z,90.98
2023-05-10T10:19:40.498Z,90.05
2023-05-10T10:22:12.013Z,89.65
2023-05-10T10:24:41.693Z,88.87
2023-05-10T10:27:32.994Z,88.78
2023-05-10T10:30:25.782Z,87.96
2023-05-10T10:33:37.262Z,86.59
2023-05-10T10:36:08.673Z,86.29
2023-05-10T10:39:02.196Z,87.85
2023-05-10T10:41:55.791Z,89.43
2023-05-10T10:44:35.943Z,89.17
2023-05-10T10:47:25.917Z,88.92
2023-05-10T10:49:58.784Z,88.44
2023-05-10T10:52:38.011Z,87.28
2023-05-10T10:55:12.910Z,87.16
2023-05-10T10:57:42.154Z,88.34
2023-05-10T11:00:34.504Z,88.17
2023-05-10T11:03:15.584Z,89.98
2023-05-10T11:05:58.809Z,84.06
2023-05-10T11:08:30.204Z,84.63
2023-05-10T11:10:59.471Z,84.37
2023-05-10T11:13:51.534Z,83.39
2023-05-10T11:16:30.165Z,83.88
2023-05-10T11:19:14.862Z,85.88
2023-05-10T11:22:06.610Z,87.27
2023-05-10T11:24:36.720Z,87.74
2023-05-10T11:27:11.009Z,90.40
2023-05-10T11:29:37.378Z,89.30
2023-05-10T11:32:09.981Z,89.63
2023-05-10T11:34:38.721Z,87.40
2023-05-10T11:37:05.206Z,85.62
2023-05-10T11:39:37.518Z,82.81
2023-05-10T11:42:04.221Z,83.52
2023-05-10T11:44:46.309Z,75.53
2023-05-10T11:47:15.054Z,77.02
2023-05-10T11:49:49.519Z,75.71
2023-05-10T11:52:18.084Z,74.37
2023-05-10T11:54:54.912Z,72.74
2023-05-10T11:57:26.551Z,74.04
2023-05-10T11:59:57.539Z,76.76
2023-05-10T12:05:11.482Z,77.41
2023-05-10T12:07:40.787Z,77.86
2023-05-10T12:10:16.211Z,80.36
2023-05-10T12:12:46.776Z,80.54
2023-05-10T12:15:23.061Z,82.72
2023-05-10T12:17:50.585Z,79.73
2023-05-10T12:20:24.360Z,78.80
2023-05-10T12:23:00.221Z,74.74
2023-05-10T12:25:33.610Z,75.36
2023-05-10T12:28:10.611Z,75.44
2023-05-10T12:30:45.407Z,70.46
2023-05-10T12:33:17.985Z,73.22
2023-05-10T12:35:55.538Z,71.00
2023-05-10T12:38:39.160Z,72.98
2023-05-10T12:41:17.839Z,70.72
2023-05-10T12:43:53.975Z,67.09
2023-05-10T12:46:20.525Z,67.59
2023-05-10T12:48:48.324Z,67.35
2023-05-10T12:51:22.294Z,68.43
2023-05-10T12:53:49.709Z,69.48
2023-05-10T12:56:19.548Z,67.88
2023-05-10T12:58:49.363Z,66.10
2023-05-10T13:04:04.891Z,68.17
2023-05-10T13:06:31.723Z,68.96
2023-05-10T13:09:00.749Z,69.23
2023-05-10T13:11:37.301Z,70.58
2023-05-10T13:14:05.272Z,69.66
2023-05-10T13:16:40.089Z,70.83
2023-05-10T13:21:53.626Z,76.48
2023-05-10T13:24:23.202Z,82.21
2023-05-10T13:26:50.523Z,86.57
2023-05-10T13:29:27.250Z,88.58
2023-05-10T13:34:36.595Z,94.74
2023-05-10T13:37:02.965Z,99.21
2023-05-10T13:39:34.130Z,100.00
2023-05-10T13:42:06.540Z,100.00
2023-05-10T13:44:34.605Z,100.00
2023-05-10T13:47:07.407Z,100.00
2023-05-10T13:49:36.947Z,100.00
2023-05-10T13:52:09.970Z,100.00
2023-05-10T13:54:39.373Z,100.00
2023-05-10T13:57:05.823Z,100.00
2023-05-10T13:59:35.377Z,100.00
2023-05-10T14:02:03.471Z,100.00
2023-05-10T14:04:38.265Z,100.00
2023-05-10T14:07:04.606Z,100.00
2023-05-10T14:09:31.342Z,100.00
2023-05-10T14:12:11.014Z,100.00
2023-05-10T14:14:41.551Z,100.00
2023-05-10T14:17:12.399Z,100.00
2023-05-10T14:19:46.457Z,100.00
2023-05-10T14:22:12.783Z,100.00
2023-05-10T14:24:39.167Z,100.00
2023-05-10T14:27:16.138Z,100.00
2023-05-10T14:29:42.953Z,100.00
2023-05-10T14:32:33.881Z,100.00
2023-05-10T14:35:07.219Z,100.00
2023-05-10T14:37:40.437Z,100.00
2023-05-10T14:40:31.753Z,100.00
2023-05-10T14:45:40.315Z,100.00
2023-05-10T14:48:13.133Z,100.00
2023-05-10T14:50:52.570Z,100.00
2023-05-10T14:53:22.903Z,100.00
2023-05-10T14:55:55.800Z,100.00
2023-05-10T14:58:34.600Z,100.00
2023-05-10T15:01:05.017Z,100.00
2023-05-10T15:03:38.465Z,100.00
2023-05-10T15:06:30.231Z,100.00
2023-05-10T15:08:59.570Z,100.00
2023-05-10T15:11:28.305Z,100.00
2023-05-10T15:14:00.309Z,100.00
2023-05-10T15:16:49.625Z,100.00
2023-05-10T15:19:19.051Z,100.00
2023-05-10T15:21:51.495Z,100.00
2023-05-10T15:27:12.650Z,100.00
2023-05-10T15:29:49.681Z,100.00
2023-05-10T15:32:34.839Z,100.00
2023-05-10T15:35:03.980Z,100.00
2023-05-10T15:37:32.765Z,100.00
2023-05-10T15:42:48.472Z,100.00
2023-05-10T15:45:19.657Z,100.00
2023-05-10T15:47:53.680Z,100.00
2023-05-10T15:50:23.197Z,100.00
2023-05-10T15:52:49.842Z,100.00
2023-05-10T15:55:17.448Z,100.00
2023-05-10T15:57:48.707Z,100.00
2023-05-10T16:00:20.257Z,100.00
2023-05-10T16:02:52.158Z,100.00
2023-05-10T16:05:30.044Z,100.00
2023-05-10T16:07:56.415Z,100.00
2023-05-10T16:10:33.438Z,100.00
2023-05-10T16:13:00.472Z,100.00
2023-05-10T16:15:35.016Z,100.00
2023-05-10T16:18:01.436Z,100.00
2023-05-10T16:20:30.455Z,100.00
2023-05-10T16:23:00.536Z,100.00
2023-05-10T16:25:26.893Z,100.00
2023-05-10T16:28:02.932Z,100.00
2023-05-10T16:30:30.573Z,100.00
2023-05-10T16:33:02.091Z,100.00
2023-05-10T16:35:32.267Z,100.00
2023-05-10T16:38:01.746Z,100.00
2023-05-10T16:40:31.370Z,100.00
2023-05-10T16:42:58.051Z,100.00
2023-05-10T16:45:33.937Z,100.00
2023-05-10T16:48:00.341Z,100.00
2023-05-10T16:50:30.979Z,100.00
2023-05-10T16:52:57.439Z,100.00
2023-05-10T16:55:26.194Z,100.00
2023-05-10T16:58:02.890Z,100.00
2023-05-10T17:00:32.809Z,100.00
2023-05-10T17:03:01.930Z,100.00
2023-05-10T17:05:29.455Z,100.00
2023-05-10T17:07:58.346Z,100.00
2023-05-10T17:10:27.874Z,100.00
2023-05-10T17:12:54.202Z,100.00
2023-05-10T17:15:25.775Z,100.00
2023-05-10T17:17:56.303Z,100.00
2023-05-10T17:20:36.151Z,100.00
2023-05-10T17:23:08.734Z,100.00
2023-05-10T17:25:38.274Z,100.00
2023-05-10T17:30:51.349Z,100.00
2023-05-10T17:33:20.774Z,100.00
2023-05-10T17:35:47.222Z,100.00
2023-05-10T17:38:13.574Z,100.00
2023-05-10T17:40:45.999Z,100.00
2023-05-10T17:43:12.534Z,100.00
2023-05-10T17:45:41.701Z,100.00
2023-05-10T17:48:11.521Z,100.00
2023-05-10T17:50:44.655Z,100.00
2023-05-10T17:53:13.795Z,100.00
2023-05-10T17:55:44.411Z,100.00
2023-05-10T17:58:15.731Z,100.00
2023-05-10T18:00:44.344Z,100.00
2023-05-10T18:03:15.955Z,100.00
2023-05-10T18:05:42.409Z,100.00
2023-05-10T18:08:10.244Z,100.00
2023-05-10T18:10:38.836Z,100.00
2023-05-10T18:13:08.648Z,100.00
2023-05-10T18:15:38.822Z,100.00
2023-05-10T18:18:06.142Z,100.00
2023-05-10T18:20:32.938Z,100.00
2023-05-10T18:22:59.874Z,100.00
2023-05-10T18:25:33.863Z,100.00
2023-05-10T18:30:42.002Z,100.00
2023-05-10T18:33:14.491Z,100.00
2023-05-10T18:35:40.934Z,100.00
2023-05-10T18:38:09.679Z,100.00
2023-05-10T18:40:41.877Z,100.00
2023-05-10T18:45:51.735Z,100.00
2023-05-10T18:48:18.214Z,100.00
2023-05-10T18:50:44.700Z,100.00
2023-05-10T18:53:11.058Z,100.00
2023-05-10T18:55:40.442Z,100.00
2023-05-10T18:58:09.998Z,100.00
2023-05-10T19:00:36.396Z,100.00
2023-05-10T19:03:11.990Z,100.00
2023-05-10T19:05:38.379Z,100.00
2023-05-10T19:08:08.326Z,100.00
2023-05-10T19:10:37.831Z,100.00
2023-05-10T19:13:04.154Z,100.00
2023-05-10T19:15:33.414Z,100.00
2023-05-10T19:18:04.017Z,100.00
2023-05-10T19:20:33.775Z,100.00
2023-05-10T19:28:21.957Z,100.00
2023-05-10T19:30:50.183Z,100.00
2023-05-10T19:33:23.218Z,100.00
2023-05-10T19:35:53.420Z,100.00
2023-05-10T19:38:22.097Z,100.00
2023-05-10T19:40:56.957Z,100.00
2023-05-10T19:43:38.225Z,100.00
2023-05-10T19:46:18.659Z,100.00
2023-05-10T19:48:52.666Z,100.00
2023-05-10T19:51:22.197Z,100.00
2023-05-10T19:53:52.819Z,100.00
2023-05-10T19:56:23.002Z,100.00
2023-05-10T19:58:49.395Z,100.00
2023-05-10T20:01:17.692Z,100.00
2023-05-10T20:03:47.551Z,100.00
2023-05-10T20:06:14.065Z,100.00
2023-05-10T20:08:50.058Z,100.00
2023-05-10T20:11:16.572Z,100.00
2023-05-10T20:13:42.916Z,100.00
2023-05-10T20:16:09.308Z,100.00
2023-05-10T20:18:37.149Z,100.00
2023-05-10T20:21:07.354Z,100.00
2023-05-10T20:23:33.816Z,100.00
2023-05-10T20:26:04.192Z,100.00
2023-05-10T20:28:36.487Z,100.00
2023-05-10T20:31:03.341Z,100.00
2023-05-10T20:33:32.567Z,100.00
2023-05-10T20:36:05.500Z,100.00
2023-05-10T20:38:31.897Z,100.00
2023-05-10T20:40:59.786Z,100.00
2023-05-10T20:43:29.289Z,100.00
2023-05-10T20:45:56.157Z,100.00
2023-05-10T20:48:27.549Z,100.00
2023-05-10T20:50:53.926Z,100.00
2023-05-10T20:53:20.315Z,100.00
2023-05-10T20:56:00.072Z,100.00
2023-05-10T20:58:30.283Z,100.00
2023-05-10T21:01:00.250Z,100.00
2023-05-10T21:03:26.659Z,100.00
2023-05-10T21:05:55.658Z,100.00
2023-05-10T21:08:24.786Z,100.00
2023-05-10T21:10:51.185Z,100.00
2023-05-10T21:13:21.096Z,100.00
2023-05-10T21:15:50.791Z,100.00
2023-05-10T21:18:20.354Z,100.00
2023-05-10T21:20:46.848Z,100.00
2023-05-10T21:23:17.420Z,100.00
2023-05-10T21:25:49.708Z,100.00
2023-05-10T21:28:16.278Z,100.00
2023-05-10T21:30:42.620Z,100.00
2023-05-10T21:33:09.339Z,100.00
2023-05-10T21:35:43.184Z,100.00
2023-05-10T21:40:58.002Z,100.00
2023-05-10T21:43:24.421Z,100.00
2023-05-10T21:45:50.838Z,100.00
2023-05-10T21:48:25.754Z,100.00
2023-05-10T21:50:52.245Z,100.00
2023-05-10T21:53:22.543Z,100.00
2023-05-10T21:55:52.091Z,100.00
2023-05-10T21:58:20.938Z,100.00
2023-05-10T22:00:57.580Z,100.00
2023-05-10T22:03:26.031Z,100.00
2023-05-10T22:05:52.967Z,100.00
2023-05-10T22:08:24.097Z,100.00
2023-05-10T22:10:53.297Z,100.00
2023-05-10T22:13:23.712Z,100.00
2023-05-10T22:19:04.492Z,100.00
2023-05-10T22:21:38.055Z,100.00
2023-05-10T22:24:08.121Z,100.00
2023-05-10T22:26:35.157Z,100.00
2023-05-10T22:29:05.506Z,100.00
2023-05-10T22:31:31.984Z,100.00
2023-05-10T22:33:58.532Z,100.00
2023-05-10T22:36:24.941Z,100.00
2023-05-10T22:38:51.399Z,100.00
2023-05-10T22:41:17.776Z,100.00
2023-05-10T22:43:46.993Z,100.00
2023-05-10T22:46:18.585Z,100.00
2023-05-10T22:48:45.053Z,100.00
2023-05-10T22:51:13.001Z,100.00
2023-05-10T22:53:39.642Z,100.00
2023-05-10T22:56:06.260Z,100.00
2023-05-10T22:58:33.380Z,100.00
2023-05-10T23:01:03.044Z,100.00
2023-05-10T23:03:29.901Z,100.00
2023-05-10T23:05:56.387Z,100.00
2023-05-10T23:08:25.933Z,100.00
2023-05-10T23:10:55.488Z,100.00
2023-05-10T23:13:22.347Z,100.00
2023-05-10T23:15:49.621Z,100.00
2023-05-10T23:18:18.857Z,100.00
2023-05-10T23:20:45.385Z,100.00
2023-05-10T23:25:57.376Z,100.00
2023-05-10T23:28:23.829Z,100.00
2023-05-10T23:31:05.687Z,100.00
2023-05-10T23:33:32.197Z,100.00
2023-05-10T23:36:03.223Z,100.00
2023-05-10T23:38:29.735Z,100.00
2023-05-10T23:40:56.123Z,100.00
2023-05-10T23:43:28.419Z,100.00
2023-05-10T23:45:59.589Z,100.00
2023-05-10T23:48:29.594Z,100.00
2023-05-10T23:50:58.943Z,100.00
2023-05-10T23:53:26.253Z,100.00
2023-05-10T23:56:02.827Z,100.00
